Aikoumaru No.8 — JD3288 — position and weather

sailwx.info

Track history (hours):
 
Tides and Currents Weather Stations Pressure Air Temp Water Temp Dewpoint Dewpoint Depression Visibility Wind Speed Wind Dir Waves Ship Positions

Aikoumaru No.8

Last reported at 2015-Mar-30 01:33 UTC. Time now 2015-Mar-30 02:27 UTC.
Position N 34°27' E 135°11'.

Length 74 m; draft 4.5 m.

Type: Cargo ship. MMSI: 431003153.

Date/timePositionNaut miles runAvg speedWind from/ knotsBaromVisibWave heightAir tempDewpointWater temp
2015-Mar-30 01:33N 34°27' E 135°11'1311.4
2015-Mar-30 00:26N 34°36' E 135°22'4 4.4
2015-Mar-29 23:33N 34°35' E 135°27'0 0.1
2015-Mar-29 22:31N 34°35' E 135°27'0 0.0
2015-Mar-29 21:31N 34°35' E 135°27'0 0.1
2015-Mar-29 20:31N 34°35' E 135°27'0 0.0
2015-Mar-29 19:32N 34°35' E 135°27'1 1.0
2015-Mar-29 18:23N 34°34' E 135°27'0 0.0
2015-Mar-29 17:23N 34°34' E 135°27'0 0.0
2015-Mar-29 16:17N 34°34' E 135°27'0 0.0
2015-Mar-29 13:11N 34°34' E 135°27'0 0.0
2015-Mar-29 11:05N 34°34' E 135°27'0 0.0
2015-Mar-29 10:11N 34°34' E 135°27'0 0.0
2015-Mar-29 05:22N 34°34' E 135°27'0 0.2
2015-Mar-29 03:27N 34°35' E 135°27'0 0.0
2015-Mar-29 02:27N 34°35' E 135°27'0 0.0
2015-Mar-29 01:33N 34°35' E 135°27'0 0.0
2015-Mar-29 00:09N 34°35' E 135°27'4 6.0
2015-Mar-28 23:33N 34°36' E 135°23'1312.9
2015-Mar-28 22:33N 34°27' E 135°12'1412.4
2015-Mar-28 21:23N 34°15' E 135°03'1113.0
2015-Mar-28 20:33N 34°04' E 135°03'1 0.0
2015-Mar-26 20:33N 34°05' E 135°03'1412.0
2015-Mar-26 19:25N 34°19' E 135°04'1011.7
2015-Mar-26 18:33N 34°27' E 135°11'1111.4
2015-Mar-26 17:33N 34°35' E 135°21'5 4.4
2015-Mar-26 16:23N 34°34' E 135°27'0 0.0
2015-Mar-26 13:25N 34°34' E 135°27'0 0.0
2015-Mar-26 10:18N 34°34' E 135°27'0 0.1
2015-Mar-26 09:20N 34°34' E 135°27'1 0.1
2015-Mar-26 02:23N 34°35' E 135°27'0 0.0
2015-Mar-26 01:23N 34°35' E 135°27'0 0.0
2015-Mar-26 00:23N 34°35' E 135°27'0 0.1
2015-Mar-25 23:23N 34°35' E 135°27'6 7.4
2015-Mar-25 22:33N 34°34' E 135°19'1212.5
2015-Mar-25 21:33N 34°24' E 135°09'1111.1
2015-Mar-25 20:33N 34°15' E 135°03'1212.2
2015-Mar-25 19:33N 34°03' E 135°02'  
2015-Mar-22 23:33N 34°08' E 135°03'1110.9
2015-Mar-22 22:32N 34°19' E 135°05'1211.4
2015-Mar-22 21:30N 34°28' E 135°13'1111.1
2015-Mar-22 20:32N 34°36' E 135°22'4 3.3
2015-Mar-22 19:15N 34°34' E 135°27'0 0.0
2015-Mar-22 18:27N 34°34' E 135°27'0 0.1
2015-Mar-22 17:15N 34°34' E 135°27'0 0.1
2015-Mar-22 16:33N 34°34' E 135°27'0 0.1
2015-Mar-22 15:27N 34°34' E 135°27'0 0.0
2015-Mar-22 14:27N 34°34' E 135°27'0 0.0
2015-Mar-22 12:27N 34°34' E 135°27'0 0.0
2015-Mar-22 11:28N 34°34' E 135°27'0 0.0
2015-Mar-22 08:32N 34°34' E 135°27'0 0.0
2015-Mar-22 07:19N 34°34' E 135°27'2 0.1
2015-Mar-21 14:04N 34°35' E 135°28'0 0.0
2015-Mar-21 07:33N 34°35' E 135°28'4 4.1
2015-Mar-21 06:27N 34°40' E 135°26'0 0.0
2015-Mar-21 05:33N 34°40' E 135°26'0 0.0
2015-Mar-21 04:27N 34°40' E 135°26'0 0.0
2015-Mar-21 03:22N 34°40' E 135°26'0 0.0
2015-Mar-21 02:33N 34°40' E 135°26'0 0.2
2015-Mar-21 01:33N 34°39' E 135°26'2 1.1
2015-Mar-21 00:10N 34°40' E 135°27'0 0.0
2015-Mar-20 23:22N 34°40' E 135°27'0 0.0
2015-Mar-20 22:10N 34°40' E 135°27'0 0.0
2015-Mar-20 21:10N 34°40' E 135°27'0 0.0
2015-Mar-20 20:28N 34°40' E 135°27'0 0.0
2015-Mar-20 19:28N 34°40' E 135°27'0 0.0
2015-Mar-20 18:28N 34°40' E 135°27'0 0.0
2015-Mar-20 17:22N 34°40' E 135°27'0 0.0
2015-Mar-20 16:16N 34°40' E 135°27'0 0.0
2015-Mar-20 15:28N 34°40' E 135°27'0 0.0
2015-Mar-20 14:28N 34°40' E 135°27'0 0.0
2015-Mar-20 13:10N 34°40' E 135°27'0 0.0
2015-Mar-20 12:10N 34°40' E 135°27'0 0.0
2015-Mar-20 08:17N 34°40' E 135°27'5 7.5
2015-Mar-20 07:33N 34°37' E 135°22'1211.5
2015-Mar-20 06:33N 34°35' E 135°08'  
Track history (hours):
 
Tides and Currents Weather Stations Pressure Air Temp Water Temp Dewpoint Dewpoint Depression Visibility Wind Speed Wind Dir Waves Ship Positions

Aikoumaru No.8

Last reported at 2015-Mar-30 01:33 UTC. Time now 2015-Mar-30 02:27 UTC.
Position N 34°27' E 135°11'.

Length 74 m; draft 4.5 m.

Type: Cargo ship. MMSI: 431003153.

Date/timePositionNaut miles runAvg speedWind from/ knotsBaromVisibWave heightAir tempDewpointWater temp
2015-Mar-30 01:33N 34°27' E 135°11'1311.4
2015-Mar-30 00:26N 34°36' E 135°22'4 4.4
2015-Mar-29 23:33N 34°35' E 135°27'0 0.1
2015-Mar-29 22:31N 34°35' E 135°27'0 0.0
2015-Mar-29 21:31N 34°35' E 135°27'0 0.1
2015-Mar-29 20:31N 34°35' E 135°27'0 0.0
2015-Mar-29 19:32N 34°35' E 135°27'1 1.0
2015-Mar-29 18:23N 34°34' E 135°27'0 0.0
2015-Mar-29 17:23N 34°34' E 135°27'0 0.0
2015-Mar-29 16:17N 34°34' E 135°27'0 0.0
2015-Mar-29 13:11N 34°34' E 135°27'0 0.0
2015-Mar-29 11:05N 34°34' E 135°27'0 0.0
2015-Mar-29 10:11N 34°34' E 135°27'0 0.0
2015-Mar-29 05:22N 34°34' E 135°27'0 0.2
2015-Mar-29 03:27N 34°35' E 135°27'0 0.0
2015-Mar-29 02:27N 34°35' E 135°27'0 0.0
2015-Mar-29 01:33N 34°35' E 135°27'0 0.0
2015-Mar-29 00:09N 34°35' E 135°27'4 6.0
2015-Mar-28 23:33N 34°36' E 135°23'1312.9
2015-Mar-28 22:33N 34°27' E 135°12'1412.4
2015-Mar-28 21:23N 34°15' E 135°03'1113.0
2015-Mar-28 20:33N 34°04' E 135°03'1 0.0
2015-Mar-26 20:33N 34°05' E 135°03'1412.0
2015-Mar-26 19:25N 34°19' E 135°04'1011.7
2015-Mar-26 18:33N 34°27' E 135°11'1111.4
2015-Mar-26 17:33N 34°35' E 135°21'5 4.4
2015-Mar-26 16:23N 34°34' E 135°27'0 0.0
2015-Mar-26 13:25N 34°34' E 135°27'0 0.0
2015-Mar-26 10:18N 34°34' E 135°27'0 0.1
2015-Mar-26 09:20N 34°34' E 135°27'1 0.1
2015-Mar-26 02:23N 34°35' E 135°27'0 0.0
2015-Mar-26 01:23N 34°35' E 135°27'0 0.0
2015-Mar-26 00:23N 34°35' E 135°27'0 0.1
2015-Mar-25 23:23N 34°35' E 135°27'6 7.4
2015-Mar-25 22:33N 34°34' E 135°19'1212.5
2015-Mar-25 21:33N 34°24' E 135°09'1111.1
2015-Mar-25 20:33N 34°15' E 135°03'1212.2
2015-Mar-25 19:33N 34°03' E 135°02'  
2015-Mar-22 23:33N 34°08' E 135°03'1110.9
2015-Mar-22 22:32N 34°19' E 135°05'1211.4
2015-Mar-22 21:30N 34°28' E 135°13'1111.1
2015-Mar-22 20:32N 34°36' E 135°22'4 3.3
2015-Mar-22 19:15N 34°34' E 135°27'0 0.0
2015-Mar-22 18:27N 34°34' E 135°27'0 0.1
2015-Mar-22 17:15N 34°34' E 135°27'0 0.1
2015-Mar-22 16:33N 34°34' E 135°27'0 0.1
2015-Mar-22 15:27N 34°34' E 135°27'0 0.0
2015-Mar-22 14:27N 34°34' E 135°27'0 0.0
2015-Mar-22 12:27N 34°34' E 135°27'0 0.0
2015-Mar-22 11:28N 34°34' E 135°27'0 0.0
2015-Mar-22 08:32N 34°34' E 135°27'0 0.0
2015-Mar-22 07:19N 34°34' E 135°27'2 0.1
2015-Mar-21 14:04N 34°35' E 135°28'0 0.0
2015-Mar-21 07:33N 34°35' E 135°28'4 4.1
2015-Mar-21 06:27N 34°40' E 135°26'0 0.0
2015-Mar-21 05:33N 34°40' E 135°26'0 0.0
2015-Mar-21 04:27N 34°40' E 135°26'0 0.0
2015-Mar-21 03:22N 34°40' E 135°26'0 0.0
2015-Mar-21 02:33N 34°40' E 135°26'0 0.2
2015-Mar-21 01:33N 34°39' E 135°26'2 1.1
2015-Mar-21 00:10N 34°40' E 135°27'0 0.0
2015-Mar-20 23:22N 34°40' E 135°27'0 0.0
2015-Mar-20 22:10N 34°40' E 135°27'0 0.0
2015-Mar-20 21:10N 34°40' E 135°27'0 0.0
2015-Mar-20 20:28N 34°40' E 135°27'0 0.0
2015-Mar-20 19:28N 34°40' E 135°27'0 0.0
2015-Mar-20 18:28N 34°40' E 135°27'0 0.0
2015-Mar-20 17:22N 34°40' E 135°27'0 0.0
2015-Mar-20 16:16N 34°40' E 135°27'0 0.0
2015-Mar-20 15:28N 34°40' E 135°27'0 0.0
2015-Mar-20 14:28N 34°40' E 135°27'0 0.0
2015-Mar-20 13:10N 34°40' E 135°27'0 0.0
2015-Mar-20 12:10N 34°40' E 135°27'0 0.0
2015-Mar-20 08:17N 34°40' E 135°27'5 7.5
2015-Mar-20 07:33N 34°37' E 135°22'1211.5
2015-Mar-20 06:33N 34°35' E 135°08'  

Dump ship's entire track history